sensor_id;sensor_type;location;lat;lon;timestamp;temperature;humidity
9083;DHT22;4577;48.704;9.000;2023-11-19T00:04:39;8.50;99.90
9083;DHT22;4577;48.704;9.000;2023-11-19T00:07:07;8.20;99.90
9083;DHT22;4577;48.704;9.000;2023-11-19T00:09:35;8.10;99.90
9083;DHT22;4577;48.704;9.000;2023-11-19T00:12:03;8.80;99.90
9083;DHT22;4577;48.704;9.000;2023-11-19T00:14:30;8.60;99.90
9083;DHT22;4577;48.704;9.000;2023-11-19T00:21:48;8.50;99.90
9083;DHT22;4577;48.704;9.000;2023-11-19T00:24:13;8.50;99.90
9083;DHT22;4577;48.704;9.000;2023-11-19T00:29:08;8.60;99.90
9083;DHT22;4577;48.704;9.000;2023-11-19T00:31:33;8.70;99.90
9083;DHT22;4577;48.704;9.000;2023-11-19T00:33:59;8.60;99.90
9083;DHT22;4577;48.704;9.000;2023-11-19T00:36:25;8.40;99.90
9083;DHT22;4577;48.704;9.000;2023-11-19T00:38:51;8.80;99.90
9083;DHT22;4577;48.704;9.000;2023-11-19T00:41:18;8.70;99.90
9083;DHT22;4577;48.704;9.000;2023-11-19T00:43:44;8.60;99.90
9083;DHT22;4577;48.704;9.000;2023-11-19T00:46:10;8.70;99.90
9083;DHT22;4577;48.704;9.000;2023-11-19T00:48:39;8.40;99.90
9083;DHT22;4577;48.704;9.000;2023-11-19T00:51:05;8.80;99.90
9083;DHT22;4577;48.704;9.000;2023-11-19T00:53:31;8.90;99.90
9083;DHT22;4577;48.704;9.000;2023-11-19T00:55:57;8.90;99.90
9083;DHT22;4577;48.704;9.000;2023-11-19T00:58:23;8.90;99.90
9083;DHT22;4577;48.704;9.000;2023-11-19T01:00:49;9.10;99.90
9083;DHT22;4577;48.704;9.000;2023-11-19T01:03:15;9.00;99.90
9083;DHT22;4577;48.704;9.000;2023-11-19T01:05:41;9.00;99.90
9083;DHT22;4577;48.704;9.000;2023-11-19T01:10:36;9.00;99.90
9083;DHT22;4577;48.704;9.000;2023-11-19T01:13:02;9.20;99.90
9083;DHT22;4577;48.704;9.000;2023-11-19T01:15:31;9.20;99.90
9083;DHT22;4577;48.704;9.000;2023-11-19T01:17:57;9.00;99.90
9083;DHT22;4577;48.704;9.000;2023-11-19T01:20:23;9.20;99.90
9083;DHT22;4577;48.704;9.000;2023-11-19T01:22:49;9.20;99.90
9083;DHT22;4577;48.704;9.000;2023-11-19T01:25:14;9.20;99.90
9083;DHT22;4577;48.704;9.000;2023-11-19T01:27:40;9.30;99.90
9083;DHT22;4577;48.704;9.000;2023-11-19T01:30:06;9.30;99.90
9083;DHT22;4577;48.704;9.000;2023-11-19T01:32:35;9.10;99.90
9083;DHT22;4577;48.704;9.000;2023-11-19T01:35:03;9.30;99.90
9083;DHT22;4577;48.704;9.000;2023-11-19T01:39:56;9.20;99.90
9083;DHT22;4577;48.704;9.000;2023-11-19T01:42:22;9.30;99.90
9083;DHT22;4577;48.704;9.000;2023-11-19T01:45:00;9.10;99.90
9083;DHT22;4577;48.704;9.000;2023-11-19T01:47:30;9.20;99.90
9083;DHT22;4577;48.704;9.000;2023-11-19T01:49:57;9.50;99.90
9083;DHT22;4577;48.704;9.000;2023-11-19T01:52:23;9.10;99.90
9083;DHT22;4577;48.704;9.000;2023-11-19T01:54:50;8.90;99.90
9083;DHT22;4577;48.704;9.000;2023-11-19T01:57:15;9.20;99.90
9083;DHT22;4577;48.704;9.000;2023-11-19T01:59:42;9.60;99.90
9083;DHT22;4577;48.704;9.000;2023-11-19T02:02:08;9.40;99.90
9083;DHT22;4577;48.704;9.000;2023-11-19T02:04:34;9.30;99.90
9083;DHT22;4577;48.704;9.000;2023-11-19T02:07:00;9.40;99.90
9083;DHT22;4577;48.704;9.000;2023-11-19T02:09:26;9.30;99.90
9083;DHT22;4577;48.704;9.000;2023-11-19T02:11:53;9.40;99.90
9083;DHT22;4577;48.704;9.000;2023-11-19T02:14:23;9.50;99.90
9083;DHT22;4577;48.704;9.000;2023-11-19T02:16:49;9.40;99.90
9083;DHT22;4577;48.704;9.000;2023-11-19T02:19:15;9.40;99.90
9083;DHT22;4577;48.704;9.000;2023-11-19T02:21:40;9.70;99.90
9083;DHT22;4577;48.704;9.000;2023-11-19T02:24:09;9.40;99.90
9083;DHT22;4577;48.704;9.000;2023-11-19T02:26:40;9.50;99.90
9083;DHT22;4577;48.704;9.000;2023-11-19T02:29:10;9.50;99.90
9083;DHT22;4577;48.704;9.000;2023-11-19T02:31:35;9.30;99.90
9083;DHT22;4577;48.704;9.000;2023-11-19T02:34:01;9.60;99.90
9083;DHT22;4577;48.704;9.000;2023-11-19T02:36:27;9.60;99.90
9083;DHT22;4577;48.704;9.000;2023-11-19T02:38:53;9.60;99.90
9083;DHT22;4577;48.704;9.000;2023-11-19T02:41:19;9.50;99.90
9083;DHT22;4577;48.704;9.000;2023-11-19T02:43:45;9.50;99.90
9083;DHT22;4577;48.704;9.000;2023-11-19T02:46:12;9.60;99.90
9083;DHT22;4577;48.704;9.000;2023-11-19T02:48:37;9.60;99.90
9083;DHT22;4577;48.704;9.000;2023-11-19T02:51:04;9.60;99.90
9083;DHT22;4577;48.704;9.000;2023-11-19T02:53:30;9.70;99.90
9083;DHT22;4577;48.704;9.000;2023-11-19T02:55:56;9.80;99.90
9083;DHT22;4577;48.704;9.000;2023-11-19T02:58:34;9.70;99.90
9083;DHT22;4577;48.704;9.000;2023-11-19T03:01:00;9.70;99.90
9083;DHT22;4577;48.704;9.000;2023-11-19T03:03:35;9.70;99.90
9083;DHT22;4577;48.704;9.000;2023-11-19T03:06:07;9.70;99.90
9083;DHT22;4577;48.704;9.000;2023-11-19T03:08:35;10.10;99.90
9083;DHT22;4577;48.704;9.000;2023-11-19T03:13:27;9.20;99.90
9083;DHT22;4577;48.704;9.000;2023-11-19T03:15:53;9.70;99.90
9083;DHT22;4577;48.704;9.000;2023-11-19T03:18:21;9.70;99.90
9083;DHT22;4577;48.704;9.000;2023-11-19T03:20:47;9.70;99.90
9083;DHT22;4577;48.704;9.000;2023-11-19T03:23:13;9.70;99.90
9083;DHT22;4577;48.704;9.000;2023-11-19T03:25:39;9.80;99.90
9083;DHT22;4577;48.704;9.000;2023-11-19T03:28:04;9.50;99.90
9083;DHT22;4577;48.704;9.000;2023-11-19T03:30:31;9.80;99.90
9083;DHT22;4577;48.704;9.000;2023-11-19T03:32:57;9.80;99.90
9083;DHT22;4577;48.704;9.000;2023-11-19T03:35:23;9.70;99.90
9083;DHT22;4577;48.704;9.000;2023-11-19T03:37:50;9.80;99.90
9083;DHT22;4577;48.704;9.000;2023-11-19T03:40:16;9.70;99.90
9083;DHT22;4577;48.704;9.000;2023-11-19T03:42:42;9.80;99.90
9083;DHT22;4577;48.704;9.000;2023-11-19T03:45:08;9.60;99.90
9083;DHT22;4577;48.704;9.000;2023-11-19T03:47:37;10.00;99.90
9083;DHT22;4577;48.704;9.000;2023-11-19T03:50:03;9.90;99.90
9083;DHT22;4577;48.704;9.000;2023-11-19T03:52:29;10.00;99.90
9083;DHT22;4577;48.704;9.000;2023-11-19T03:54:55;9.80;99.90
9083;DHT22;4577;48.704;9.000;2023-11-19T03:57:22;9.80;99.90
9083;DHT22;4577;48.704;9.000;2023-11-19T03:59:48;9.80;99.90
9083;DHT22;4577;48.704;9.000;2023-11-19T04:02:14;9.80;99.90
9083;DHT22;4577;48.704;9.000;2023-11-19T04:04:40;9.90;99.90
9083;DHT22;4577;48.704;9.000;2023-11-19T04:07:06;9.80;99.90
9083;DHT22;4577;48.704;9.000;2023-11-19T04:09:32;9.70;99.90
9083;DHT22;4577;48.704;9.000;2023-11-19T04:12:01;9.90;99.90
9083;DHT22;4577;48.704;9.000;2023-11-19T04:14:27;9.70;99.90
9083;DHT22;4577;48.704;9.000;2023-11-19T04:16:53;9.80;99.90
9083;DHT22;4577;48.704;9.000;2023-11-19T04:19:19;10.00;99.90
9083;DHT22;4577;48.704;9.000;2023-11-19T04:21:45;10.00;99.90
9083;DHT22;4577;48.704;9.000;2023-11-19T04:24:11;10.00;99.90
9083;DHT22;4577;48.704;9.000;2023-11-19T04:26:42;10.00;99.90
9083;DHT22;4577;48.704;9.000;2023-11-19T04:29:12;9.60;99.90
9083;DHT22;4577;48.704;9.000;2023-11-19T04:31:38;10.10;99.90
9083;DHT22;4577;48.704;9.000;2023-11-19T04:34:05;10.10;99.90
9083;DHT22;4577;48.704;9.000;2023-11-19T04:36:32;10.10;99.90
9083;DHT22;4577;48.704;9.000;2023-11-19T04:38:58;10.10;99.90
9083;DHT22;4577;48.704;9.000;2023-11-19T04:41:25;10.30;99.90
9083;DHT22;4577;48.704;9.000;2023-11-19T04:43:51;10.10;99.90
9083;DHT22;4577;48.704;9.000;2023-11-19T04:46:16;10.40;99.90
9083;DHT22;4577;48.704;9.000;2023-11-19T04:48:42;10.30;99.90
9083;DHT22;4577;48.704;9.000;2023-11-19T04:51:08;10.20;99.90
9083;DHT22;4577;48.704;9.000;2023-11-19T04:53:36;10.20;99.90
9083;DHT22;4577;48.704;9.000;2023-11-19T04:56:10;9.80;99.90
9083;DHT22;4577;48.704;9.000;2023-11-19T04:58:36;10.00;99.90
9083;DHT22;4577;48.704;9.000;2023-11-19T05:01:03;9.70;99.90
9083;DHT22;4577;48.704;9.000;2023-11-19T05:03:29;10.30;99.90
9083;DHT22;4577;48.704;9.000;2023-11-19T05:05:55;10.30;99.90
9083;DHT22;4577;48.704;9.000;2023-11-19T05:08:21;10.30;99.90
9083;DHT22;4577;48.704;9.000;2023-11-19T05:10:47;10.40;99.90
9083;DHT22;4577;48.704;9.000;2023-11-19T05:13:12;10.40;99.90
9083;DHT22;4577;48.704;9.000;2023-11-19T05:15:38;10.60;99.90
9083;DHT22;4577;48.704;9.000;2023-11-19T05:18:04;10.30;99.90
9083;DHT22;4577;48.704;9.000;2023-11-19T05:20:30;10.30;99.90
9083;DHT22;4577;48.704;9.000;2023-11-19T05:22:56;10.60;99.90
9083;DHT22;4577;48.704;9.000;2023-11-19T05:25:22;10.40;99.90
9083;DHT22;4577;48.704;9.000;2023-11-19T05:27:47;10.40;99.90
9083;DHT22;4577;48.704;9.000;2023-11-19T05:30:13;10.30;99.90
9083;DHT22;4577;48.704;9.000;2023-11-19T05:32:39;10.60;99.90
9083;DHT22;4577;48.704;9.000;2023-11-19T05:35:06;10.50;99.90
9083;DHT22;4577;48.704;9.000;2023-11-19T05:37:33;10.50;99.90
9083;DHT22;4577;48.704;9.000;2023-11-19T05:40:00;10.90;99.90
9083;DHT22;4577;48.704;9.000;2023-11-19T05:42:28;10.50;99.90
9083;DHT22;4577;48.704;9.000;2023-11-19T05:44:54;10.70;99.90
9083;DHT22;4577;48.704;9.000;2023-11-19T05:47:19;10.40;99.90
9083;DHT22;4577;48.704;9.000;2023-11-19T05:49:45;10.40;99.90
9083;DHT22;4577;48.704;9.000;2023-11-19T05:52:11;10.70;99.90
9083;DHT22;4577;48.704;9.000;2023-11-19T05:54:38;10.60;99.90
9083;DHT22;4577;48.704;9.000;2023-11-19T05:57:07;10.60;99.90
9083;DHT22;4577;48.704;9.000;2023-11-19T05:59:36;10.60;99.90
9083;DHT22;4577;48.704;9.000;2023-11-19T06:02:02;10.60;99.90
9083;DHT22;4577;48.704;9.000;2023-11-19T06:04:28;10.60;99.90
9083;DHT22;4577;48.704;9.000;2023-11-19T06:06:54;10.60;99.90
9083;DHT22;4577;48.704;9.000;2023-11-19T06:09:21;10.60;99.90
9083;DHT22;4577;48.704;9.000;2023-11-19T06:11:49;10.40;99.90
9083;DHT22;4577;48.704;9.000;2023-11-19T06:14:16;10.60;99.90
9083;DHT22;4577;48.704;9.000;2023-11-19T06:16:41;10.60;99.90
9083;DHT22;4577;48.704;9.000;2023-11-19T06:19:07;10.70;99.90
9083;DHT22;4577;48.704;9.000;2023-11-19T06:21:33;10.70;99.90
9083;DHT22;4577;48.704;9.000;2023-11-19T06:23:59;10.80;99.90
9083;DHT22;4577;48.704;9.000;2023-11-19T06:26:24;10.60;99.90
9083;DHT22;4577;48.704;9.000;2023-11-19T06:31:16;10.60;99.90
9083;DHT22;4577;48.704;9.000;2023-11-19T06:33:42;10.60;99.90
9083;DHT22;4577;48.704;9.000;2023-11-19T06:36:08;10.70;99.90
9083;DHT22;4577;48.704;9.000;2023-11-19T06:38:35;10.70;99.90
9083;DHT22;4577;48.704;9.000;2023-11-19T06:41:00;10.70;99.90
9083;DHT22;4577;48.704;9.000;2023-11-19T06:43:27;10.50;99.90
9083;DHT22;4577;48.704;9.000;2023-11-19T06:45:53;10.70;99.90
9083;DHT22;4577;48.704;9.000;2023-11-19T06:48:19;10.50;99.90
9083;DHT22;4577;48.704;9.000;2023-11-19T06:50:45;10.70;99.90
9083;DHT22;4577;48.704;9.000;2023-11-19T06:53:11;10.70;99.90
9083;DHT22;4577;48.704;9.000;2023-11-19T06:55:36;10.70;99.90
9083;DHT22;4577;48.704;9.000;2023-11-19T06:58:02;10.80;99.90
9083;DHT22;4577;48.704;9.000;2023-11-19T07:00:28;10.70;99.90
9083;DHT22;4577;48.704;9.000;2023-11-19T07:02:54;10.70;99.90
9083;DHT22;4577;48.704;9.000;2023-11-19T07:05:21;10.80;99.90
9083;DHT22;4577;48.704;9.000;2023-11-19T07:07:46;10.80;99.90
9083;DHT22;4577;48.704;9.000;2023-11-19T07:10:12;11.10;99.90
9083;DHT22;4577;48.704;9.000;2023-11-19T07:12:38;10.60;99.90
9083;DHT22;4577;48.704;9.000;2023-11-19T07:15:04;10.70;99.90
9083;DHT22;4577;48.704;9.000;2023-11-19T07:17:31;10.80;99.90
9083;DHT22;4577;48.704;9.000;2023-11-19T07:19:56;10.60;99.90
9083;DHT22;4577;48.704;9.000;2023-11-19T07:22:25;10.80;99.90
9083;DHT22;4577;48.704;9.000;2023-11-19T07:24:51;10.90;99.90
9083;DHT22;4577;48.704;9.000;2023-11-19T07:27:17;11.20;99.90
9083;DHT22;4577;48.704;9.000;2023-11-19T07:29:43;11.00;99.90
9083;DHT22;4577;48.704;9.000;2023-11-19T07:32:10;11.10;99.90
9083;DHT22;4577;48.704;9.000;2023-11-19T07:34:36;11.10;99.90
9083;DHT22;4577;48.704;9.000;2023-11-19T07:37:02;11.50;99.90
9083;DHT22;4577;48.704;9.000;2023-11-19T07:39:28;11.10;99.90
9083;DHT22;4577;48.704;9.000;2023-11-19T07:41:54;11.10;99.90
9083;DHT22;4577;48.704;9.000;2023-11-19T07:44:20;11.20;99.90
9083;DHT22;4577;48.704;9.000;2023-11-19T07:46:47;11.10;99.90
9083;DHT22;4577;48.704;9.000;2023-11-19T07:49:13;11.10;99.90
9083;DHT22;4577;48.704;9.000;2023-11-19T07:51:39;11.10;99.90
9083;DHT22;4577;48.704;9.000;2023-11-19T07:54:05;11.20;99.90
9083;DHT22;4577;48.704;9.000;2023-11-19T07:56:34;11.10;99.90
9083;DHT22;4577;48.704;9.000;2023-11-19T07:59:01;10.70;99.90
9083;DHT22;4577;48.704;9.000;2023-11-19T08:01:27;11.00;99.90
9083;DHT22;4577;48.704;9.000;2023-11-19T08:03:52;11.10;99.90
9083;DHT22;4577;48.704;9.000;2023-11-19T08:06:18;11.00;99.90
9083;DHT22;4577;48.704;9.000;2023-11-19T08:08:44;11.20;99.90
9083;DHT22;4577;48.704;9.000;2023-11-19T08:11:10;11.10;99.90
9083;DHT22;4577;48.704;9.000;2023-11-19T08:13:36;10.90;99.90
9083;DHT22;4577;48.704;9.000;2023-11-19T08:16:01;11.10;99.90
9083;DHT22;4577;48.704;9.000;2023-11-19T08:18:27;11.10;99.90
9083;DHT22;4577;48.704;9.000;2023-11-19T08:20:53;11.10;99.90
9083;DHT22;4577;48.704;9.000;2023-11-19T08:23:19;11.20;99.90
9083;DHT22;4577;48.704;9.000;2023-11-19T08:25:45;11.20;99.90
9083;DHT22;4577;48.704;9.000;2023-11-19T08:30:37;11.20;99.90
9083;DHT22;4577;48.704;9.000;2023-11-19T08:33:03;10.80;99.90
9083;DHT22;4577;48.704;9.000;2023-11-19T08:35:29;11.20;99.90
9083;DHT22;4577;48.704;9.000;2023-11-19T08:40:22;11.40;99.90
9083;DHT22;4577;48.704;9.000;2023-11-19T08:42:48;11.50;99.90
9083;DHT22;4577;48.704;9.000;2023-11-19T08:45:14;12.00;99.90
9083;DHT22;4577;48.704;9.000;2023-11-19T08:47:40;11.20;99.90
9083;DHT22;4577;48.704;9.000;2023-11-19T08:50:06;11.50;99.90
9083;DHT22;4577;48.704;9.000;2023-11-19T08:52:32;11.30;99.90
9083;DHT22;4577;48.704;9.000;2023-11-19T08:54:57;11.60;99.90
9083;DHT22;4577;48.704;9.000;2023-11-19T08:57:23;11.60;99.90
9083;DHT22;4577;48.704;9.000;2023-11-19T09:02:15;11.60;99.90
9083;DHT22;4577;48.704;9.000;2023-11-19T09:04:41;11.90;99.90
9083;DHT22;4577;48.704;9.000;2023-11-19T09:07:07;11.70;99.90
9083;DHT22;4577;48.704;9.000;2023-11-19T09:09:35;11.70;99.90
9083;DHT22;4577;48.704;9.000;2023-11-19T09:12:02;11.90;99.90
9083;DHT22;4577;48.704;9.000;2023-11-19T09:14:29;12.00;99.90
9083;DHT22;4577;48.704;9.000;2023-11-19T09:16:56;12.00;99.90
9083;DHT22;4577;48.704;9.000;2023-11-19T09:19:21;12.30;99.90
9083;DHT22;4577;48.704;9.000;2023-11-19T09:21:47;12.20;99.90
9083;DHT22;4577;48.704;9.000;2023-11-19T09:24:13;12.20;99.90
9083;DHT22;4577;48.704;9.000;2023-11-19T09:26:39;12.20;99.90
9083;DHT22;4577;48.704;9.000;2023-11-19T09:29:07;12.30;99.90
9083;DHT22;4577;48.704;9.000;2023-11-19T09:31:33;12.40;99.90
9083;DHT22;4577;48.704;9.000;2023-11-19T09:34:00;12.40;99.90
9083;DHT22;4577;48.704;9.000;2023-11-19T09:36:25;12.40;99.90
9083;DHT22;4577;48.704;9.000;2023-11-19T09:38:51;12.50;99.90
9083;DHT22;4577;48.704;9.000;2023-11-19T09:41:17;12.50;99.90
9083;DHT22;4577;48.704;9.000;2023-11-19T09:43:45;12.40;99.90
9083;DHT22;4577;48.704;9.000;2023-11-19T09:46:12;12.40;99.90
9083;DHT22;4577;48.704;9.000;2023-11-19T09:48:38;12.40;99.90
9083;DHT22;4577;48.704;9.000;2023-11-19T09:51:06;12.50;99.90
9083;DHT22;4577;48.704;9.000;2023-11-19T09:53:32;12.60;99.90
9083;DHT22;4577;48.704;9.000;2023-11-19T09:56:00;12.40;99.90
9083;DHT22;4577;48.704;9.000;2023-11-19T09:58:28;12.50;99.90
9083;DHT22;4577;48.704;9.000;2023-11-19T10:00:54;12.60;99.90
9083;DHT22;4577;48.704;9.000;2023-11-19T10:03:21;12.70;99.90
9083;DHT22;4577;48.704;9.000;2023-11-19T10:08:13;12.90;99.90
9083;DHT22;4577;48.704;9.000;2023-11-19T10:10:39;12.90;99.90
9083;DHT22;4577;48.704;9.000;2023-11-19T10:13:05;13.00;99.90
9083;DHT22;4577;48.704;9.000;2023-11-19T10:15:37;13.00;99.90
9083;DHT22;4577;48.704;9.000;2023-11-19T10:18:03;13.40;99.90
9083;DHT22;4577;48.704;9.000;2023-11-19T10:20:38;13.00;99.90
9083;DHT22;4577;48.704;9.000;2023-11-19T10:23:06;13.40;99.90
9083;DHT22;4577;48.704;9.000;2023-11-19T10:25:32;13.70;99.90
9083;DHT22;4577;48.704;9.000;2023-11-19T10:27:59;13.60;99.90
9083;DHT22;4577;48.704;9.000;2023-11-19T10:30:28;13.60;99.90
9083;DHT22;4577;48.704;9.000;2023-11-19T10:33:08;13.60;99.90
9083;DHT22;4577;48.704;9.000;2023-11-19T10:35:56;13.90;99.90
9083;DHT22;4577;48.704;9.000;2023-11-19T10:38:24;13.80;99.90
9083;DHT22;4577;48.704;9.000;2023-11-19T10:40:51;13.30;99.90
9083;DHT22;4577;48.704;9.000;2023-11-19T10:43:20;13.80;99.90
9083;DHT22;4577;48.704;9.000;2023-11-19T10:45:50;13.60;99.90
9083;DHT22;4577;48.704;9.000;2023-11-19T10:48:16;13.10;99.90
9083;DHT22;4577;48.704;9.000;2023-11-19T10:50:44;13.60;99.90
9083;DHT22;4577;48.704;9.000;2023-11-19T10:53:12;13.70;99.90
9083;DHT22;4577;48.704;9.000;2023-11-19T10:55:47;13.30;99.90
9083;DHT22;4577;48.704;9.000;2023-11-19T10:58:16;13.80;99.90
9083;DHT22;4577;48.704;9.000;2023-11-19T11:00:54;13.90;99.90
9083;DHT22;4577;48.704;9.000;2023-11-19T11:03:22;14.20;99.90
9083;DHT22;4577;48.704;9.000;2023-11-19T11:05:51;14.00;99.90
9083;DHT22;4577;48.704;9.000;2023-11-19T11:08:17;14.00;99.90
9083;DHT22;4577;48.704;9.000;2023-11-19T11:10:53;14.40;99.90
9083;DHT22;4577;48.704;9.000;2023-11-19T11:13:19;14.10;99.90
9083;DHT22;4577;48.704;9.000;2023-11-19T11:15:48;14.00;99.90
9083;DHT22;4577;48.704;9.000;2023-11-19T11:18:14;14.40;99.90
9083;DHT22;4577;48.704;9.000;2023-11-19T11:20:40;14.20;99.90
9083;DHT22;4577;48.704;9.000;2023-11-19T11:23:32;14.20;99.90
9083;DHT22;4577;48.704;9.000;2023-11-19T11:28:48;13.70;99.90
9083;DHT22;4577;48.704;9.000;2023-11-19T11:31:26;14.00;99.90
9083;DHT22;4577;48.704;9.000;2023-11-19T11:39:40;14.20;99.90
9083;DHT22;4577;48.704;9.000;2023-11-19T11:50:13;13.80;99.90
9083;DHT22;4577;48.704;9.000;2023-11-19T11:58:30;13.70;99.90
9083;DHT22;4577;48.704;9.000;2023-11-19T12:00:58;14.00;99.90
9083;DHT22;4577;48.704;9.000;2023-11-19T12:03:27;14.00;99.90
9083;DHT22;4577;48.704;9.000;2023-11-19T12:05:53;13.40;99.90
9083;DHT22;4577;48.704;9.000;2023-11-19T12:08:20;14.40;99.90
9083;DHT22;4577;48.704;9.000;2023-11-19T12:10:51;14.10;99.90
9083;DHT22;4577;48.704;9.000;2023-11-19T12:13:21;14.30;99.90
9083;DHT22;4577;48.704;9.000;2023-11-19T12:18:24;14.20;99.90
9083;DHT22;4577;48.704;9.000;2023-11-19T12:20:51;14.30;99.90
9083;DHT22;4577;48.704;9.000;2023-11-19T12:23:17;14.00;99.90
9083;DHT22;4577;48.704;9.000;2023-11-19T12:25:43;14.40;99.90
9083;DHT22;4577;48.704;9.000;2023-11-19T12:28:14;14.20;99.90
9083;DHT22;4577;48.704;9.000;2023-11-19T12:30:42;14.10;99.90
9083;DHT22;4577;48.704;9.000;2023-11-19T12:33:09;14.20;99.90
9083;DHT22;4577;48.704;9.000;2023-11-19T12:35:45;14.20;99.90
9083;DHT22;4577;48.704;9.000;2023-11-19T12:38:19;14.20;99.90
9083;DHT22;4577;48.704;9.000;2023-11-19T12:41:08;14.40;99.90
9083;DHT22;4577;48.704;9.000;2023-11-19T12:43:36;14.20;99.90
9083;DHT22;4577;48.704;9.000;2023-11-19T12:46:03;14.40;99.90
9083;DHT22;4577;48.704;9.000;2023-11-19T12:48:29;14.60;99.90
9083;DHT22;4577;48.704;9.000;2023-11-19T12:50:56;14.30;99.90
9083;DHT22;4577;48.704;9.000;2023-11-19T12:53:24;14.40;99.90
9083;DHT22;4577;48.704;9.000;2023-11-19T12:55:51;14.40;99.70
9083;DHT22;4577;48.704;9.000;2023-11-19T12:58:32;14.10;99.90
9083;DHT22;4577;48.704;9.000;2023-11-19T13:01:02;14.40;99.50
9083;DHT22;4577;48.704;9.000;2023-11-19T13:03:38;14.30;99.50
9083;DHT22;4577;48.704;9.000;2023-11-19T13:06:11;14.50;99.70
9083;DHT22;4577;48.704;9.000;2023-11-19T13:08:39;14.10;98.80
9083;DHT22;4577;48.704;9.000;2023-11-19T13:11:05;14.40;99.90
9083;DHT22;4577;48.704;9.000;2023-11-19T13:13:31;14.30;99.90
9083;DHT22;4577;48.704;9.000;2023-11-19T13:16:04;14.00;99.90
9083;DHT22;4577;48.704;9.000;2023-11-19T13:18:31;14.20;99.90
9083;DHT22;4577;48.704;9.000;2023-11-19T13:20:57;14.30;99.40
9083;DHT22;4577;48.704;9.000;2023-11-19T13:23:23;14.30;99.40
9083;DHT22;4577;48.704;9.000;2023-11-19T13:25:48;14.40;99.60
9083;DHT22;4577;48.704;9.000;2023-11-19T13:28:14;14.30;99.80
9083;DHT22;4577;48.704;9.000;2023-11-19T13:30:40;14.20;99.90
9083;DHT22;4577;48.704;9.000;2023-11-19T13:33:05;14.30;99.70
9083;DHT22;4577;48.704;9.000;2023-11-19T13:35:31;14.30;99.90
9083;DHT22;4577;48.704;9.000;2023-11-19T13:37:57;14.50;99.30
9083;DHT22;4577;48.704;9.000;2023-11-19T13:40:23;14.30;99.90
9083;DHT22;4577;48.704;9.000;2023-11-19T13:42:50;14.30;99.50
9083;DHT22;4577;48.704;9.000;2023-11-19T13:45:16;14.30;99.60
9083;DHT22;4577;48.704;9.000;2023-11-19T13:47:44;14.30;98.30
9083;DHT22;4577;48.704;9.000;2023-11-19T13:50:15;14.10;98.70
9083;DHT22;4577;48.704;9.000;2023-11-19T13:52:43;14.20;99.30
9083;DHT22;4577;48.704;9.000;2023-11-19T13:55:10;14.30;98.60
9083;DHT22;4577;48.704;9.000;2023-11-19T13:57:37;14.20;97.70
9083;DHT22;4577;48.704;9.000;2023-11-19T14:00:03;14.10;97.50
9083;DHT22;4577;48.704;9.000;2023-11-19T14:02:35;14.10;97.60
9083;DHT22;4577;48.704;9.000;2023-11-19T14:07:27;14.30;97.50
9083;DHT22;4577;48.704;9.000;2023-11-19T14:09:53;14.00;98.50
9083;DHT22;4577;48.704;9.000;2023-11-19T14:14:45;14.30;98.80
9083;DHT22;4577;48.704;9.000;2023-11-19T14:19:38;14.30;98.90
9083;DHT22;4577;48.704;9.000;2023-11-19T14:22:05;14.10;98.10
9083;DHT22;4577;48.704;9.000;2023-11-19T14:24:31;14.30;98.90
9083;DHT22;4577;48.704;9.000;2023-11-19T14:26:56;14.20;98.50
9083;DHT22;4577;48.704;9.000;2023-11-19T14:29:24;14.00;98.40
9083;DHT22;4577;48.704;9.000;2023-11-19T14:31:52;14.20;98.10
9083;DHT22;4577;48.704;9.000;2023-11-19T14:34:22;14.10;99.00
9083;DHT22;4577;48.704;9.000;2023-11-19T14:51:26;13.70;98.90
9083;DHT22;4577;48.704;9.000;2023-11-19T14:58:44;14.20;99.00
9083;DHT22;4577;48.704;9.000;2023-11-19T15:01:13;13.70;98.40
9083;DHT22;4577;48.704;9.000;2023-11-19T15:03:39;13.70;98.90
9083;DHT22;4577;48.704;9.000;2023-11-19T15:06:06;13.70;98.10
9083;DHT22;4577;48.704;9.000;2023-11-19T15:08:32;13.90;98.20
9083;DHT22;4577;48.704;9.000;2023-11-19T15:10:58;13.70;97.40
9083;DHT22;4577;48.704;9.000;2023-11-19T15:13:25;13.60;97.90
9083;DHT22;4577;48.704;9.000;2023-11-19T15:18:18;13.50;97.60
9083;DHT22;4577;48.704;9.000;2023-11-19T15:23:13;14.30;98.40
9083;DHT22;4577;48.704;9.000;2023-11-19T15:32:57;13.30;96.90
9083;DHT22;4577;48.704;9.000;2023-11-19T15:37:49;13.30;98.20
9083;DHT22;4577;48.704;9.000;2023-11-19T15:45:11;13.10;97.60
9083;DHT22;4577;48.704;9.000;2023-11-19T15:50:07;13.00;97.80
9083;DHT22;4577;48.704;9.000;2023-11-19T15:52:35;12.50;98.50
9083;DHT22;4577;48.704;9.000;2023-11-19T15:55:01;13.10;98.80
9083;DHT22;4577;48.704;9.000;2023-11-19T15:59:52;12.90;99.20
9083;DHT22;4577;48.704;9.000;2023-11-19T16:02:19;12.60;99.30
9083;DHT22;4577;48.704;9.000;2023-11-19T16:04:44;12.90;99.30
9083;DHT22;4577;48.704;9.000;2023-11-19T16:07:14;12.80;99.90
9083;DHT22;4577;48.704;9.000;2023-11-19T16:09:40;12.70;99.90
9083;DHT22;4577;48.704;9.000;2023-11-19T16:16:59;12.50;99.20
9083;DHT22;4577;48.704;9.000;2023-11-19T16:19:25;12.70;99.90
9083;DHT22;4577;48.704;9.000;2023-11-19T16:21:52;12.80;99.90
9083;DHT22;4577;48.704;9.000;2023-11-19T16:24:18;13.20;99.90
9083;DHT22;4577;48.704;9.000;2023-11-19T16:26:44;13.10;99.90
9083;DHT22;4577;48.704;9.000;2023-11-19T16:41:22;12.40;99.90
9083;DHT22;4577;48.704;9.000;2023-11-19T16:43:51;12.40;99.90
9083;DHT22;4577;48.704;9.000;2023-11-19T16:46:19;12.50;99.90
9083;DHT22;4577;48.704;9.000;2023-11-19T16:48:46;12.40;99.90
9083;DHT22;4577;48.704;9.000;2023-11-19T16:51:14;13.00;99.90
9083;DHT22;4577;48.704;9.000;2023-11-19T16:53:47;12.50;99.90
9083;DHT22;4577;48.704;9.000;2023-11-19T16:56:17;12.40;99.90
9083;DHT22;4577;48.704;9.000;2023-11-19T16:58:46;12.40;99.90
9083;DHT22;4577;48.704;9.000;2023-11-19T17:01:13;12.40;99.90
9083;DHT22;4577;48.704;9.000;2023-11-19T17:06:08;12.30;99.90
9083;DHT22;4577;48.704;9.000;2023-11-19T17:13:27;12.30;99.90
9083;DHT22;4577;48.704;9.000;2023-11-19T17:15:55;11.90;99.20
9083;DHT22;4577;48.704;9.000;2023-11-19T17:20:47;12.40;99.20
9083;DHT22;4577;48.704;9.000;2023-11-19T17:23:14;12.40;99.50
9083;DHT22;4577;48.704;9.000;2023-11-19T17:28:07;12.30;99.30
9083;DHT22;4577;48.704;9.000;2023-11-19T17:30:37;12.40;98.80
9083;DHT22;4577;48.704;9.000;2023-11-19T17:33:07;12.30;99.30
9083;DHT22;4577;48.704;9.000;2023-11-19T17:35:35;12.50;99.90
9083;DHT22;4577;48.704;9.000;2023-11-19T17:42:53;12.50;99.40
9083;DHT22;4577;48.704;9.000;2023-11-19T17:47:45;12.20;99.10
9083;DHT22;4577;48.704;9.000;2023-11-19T17:50:11;12.20;99.60
9083;DHT22;4577;48.704;9.000;2023-11-19T17:52:37;12.30;99.90
9083;DHT22;4577;48.704;9.000;2023-11-19T17:55:03;12.30;99.50
9083;DHT22;4577;48.704;9.000;2023-11-19T17:57:30;12.00;99.30
9083;DHT22;4577;48.704;9.000;2023-11-19T18:02:22;12.00;99.90
9083;DHT22;4577;48.704;9.000;2023-11-19T18:04:48;12.20;99.90
9083;DHT22;4577;48.704;9.000;2023-11-19T18:07:15;12.20;99.90
9083;DHT22;4577;48.704;9.000;2023-11-19T18:09:42;12.50;99.90
9083;DHT22;4577;48.704;9.000;2023-11-19T18:12:09;12.00;99.90
9083;DHT22;4577;48.704;9.000;2023-11-19T18:14:39;12.20;99.90
9083;DHT22;4577;48.704;9.000;2023-11-19T18:17:04;12.10;99.90
9083;DHT22;4577;48.704;9.000;2023-11-19T18:19:30;12.30;99.90
9083;DHT22;4577;48.704;9.000;2023-11-19T18:24:24;12.40;99.90
9083;DHT22;4577;48.704;9.000;2023-11-19T18:26:50;12.10;99.90
9083;DHT22;4577;48.704;9.000;2023-11-19T18:29:16;12.10;99.90
9083;DHT22;4577;48.704;9.000;2023-11-19T18:31:44;11.90;99.90